This is the latest recevied weather packets stored in our database for station/object IW4EMA-3. If no packets are shown the sender has not sent any weather packets the latest 10 day(s).
| Time | Temp. | Humidity | Pressure | Rain* | Wind** | Luminosity | Snow |
|---|---|---|---|---|---|---|---|
| 1777412601 | 15.56° C | 78% | 1014.9 hPa | 0 mm | - | 0 W/m² | - |
| 1777412008 | 16.11° C | 77% | 1014.7 hPa | 0 mm | - | 0 W/m² | - |
| 1777404200 | 17.78° C | 69% | 1014.2 hPa | 0 mm | - | 0 W/m² | - |
| 1777402409 | 18.33° C | 66% | 1014.1 hPa | 0 mm | - | 0 W/m² | - |
| 1777401801 | 18.89° C | 64% | 1013.9 hPa | 0 mm | - | 0 W/m² | - |
| 1777400601 | 19.44° C | 61% | 1013.9 hPa | 0 mm | - | 1 W/m² | - |
| 1777397609 | 20.56° C | 56% | 1013.7 hPa | 0 mm | - | 26 W/m² | - |
| 1777390408 | 23.89° C | 48% | 1013.5 hPa | 0 mm | - | 139 W/m² | - |
| 1777376009 | 24.44° C | 50% | 1014.4 hPa | 0 mm | - | 395 W/m² | - |
| 1777373610 | 23.89° C | 49% | 1014.7 hPa | 0 mm | - | 631 W/m² | - |
| 1777361002 | 20° C | 82% | 1015.3 hPa | 0 mm | - | 337 W/m² | - |
| 1777359802 | 18.89° C | 86% | 1015.2 hPa | 0 mm | - | 281 W/m² | - |
| 1777359210 | 18.33° C | 86% | 1015.3 hPa | 0 mm | - | 243 W/m² | - |
| 1777357401 | 17.78° C | 86% | 1015.5 hPa | 0 mm | - | 186 W/m² | - |
| 1777349629 | 13.89° C | 93% | 1014.6 hPa | 0 mm | - | 3 W/m² | - |
| 1777346601 | 13.89° C | 91% | 1014.8 hPa | 0 mm | - | 0 W/m² | - |
| 1777345422 | 13.33° C | 91% | 1014.9 hPa | 0 mm | - | 0 W/m² | - |
| 1777344810 | 13.89° C | 91% | 1015.1 hPa | 0 mm | - | 0 W/m² | - |
| 1777343610 | 13.89° C | 90% | 1014.9 hPa | 0 mm | - | 0 W/m² | - |
| 1777342410 | 13.89° C | 89% | 1015.1 hPa | 0 mm | - | 0 W/m² | - |
| 1777341842 | 13.89° C | 89% | 1015.4 hPa | 0 mm | - | 0 W/m² | - |
| 1777337611 | 13.89° C | 87% | 1015.3 hPa | 0 mm | - | 0 W/m² | - |
| 1777336410 | 14.44° C | 87% | 1015.3 hPa | 0 mm | - | 0 W/m² | - |
| 1777335802 | 14.44° C | 87% | 1015.5 hPa | 0 mm | - | 0 W/m² | - |
| 1777331002 | 15.56° C | 84% | 1015.2 hPa | 0 mm | - | 0 W/m² | - |
* Rain latest hour (hover to see other rain measurements)
** Current wind speed in m/s (hover to see current wind gust speed)